Time;durP1;ratioP1;P1;durP2;ratioP2;P2;SDS_P1;SDS_P2;PMS_P1;PMS_P2;Temp;Humidity;BMP_temperature;BMP_pressure;BME280_temperature;BME280_humidity;BME280_pressure;Samples;Min_cycle;Max_cycle;Signal;HPM_P1;HPM_P2
2022/12/16 00:01:16;;;;;;;68.50;32.53;;;;;;;-0.89;100.00;100787.28;4903487;29;20015;-73
2022/12/16 00:03:46;;;;;;;72.97;33.03;;;;;;;-0.95;100.00;100793.81;4901789;29;20118;-74
2022/12/16 00:06:11;;;;;;;65.00;32.90;;;;;;;-0.90;100.00;100786.44;4905127;29;20028;-73
2022/12/16 00:08:38;;;;;;;69.97;33.73;;;;;;;-1.04;100.00;100789.03;4932369;29;20520;-74
2022/12/16 00:11:05;;;;;;;62.80;31.80;;;;;;;-1.08;100.00;100792.78;4926289;29;20065;-73
2022/12/16 00:13:32;;;;;;;61.90;32.17;;;;;;;-1.05;100.00;100797.06;4907180;29;20436;-73
2022/12/16 00:15:57;;;;;;;71.23;35.00;;;;;;;-1.21;100.00;100807.69;4917090;29;20027;-74
2022/12/16 00:18:23;;;;;;;65.83;32.33;;;;;;;-1.11;100.00;100808.88;4919461;28;20024;-73
2022/12/16 00:20:52;;;;;;;68.60;35.90;;;;;;;-1.28;100.00;100819.59;4914854;29;20016;-72
2022/12/16 00:23:17;;;;;;;67.93;33.83;;;;;;;-1.10;100.00;100815.94;4915472;29;20032;-73
2022/12/16 00:25:44;;;;;;;69.33;34.50;;;;;;;-1.06;100.00;100820.13;4916408;29;20439;-73
2022/12/16 00:28:10;;;;;;;68.90;36.10;;;;;;;-1.12;100.00;100818.66;4915935;29;20118;-72
2022/12/16 00:30:36;;;;;;;70.00;33.23;;;;;;;-1.08;100.00;100824.66;4941248;28;20483;-72
2022/12/16 00:33:01;;;;;;;68.83;34.90;;;;;;;-0.98;100.00;100820.56;4929933;29;20108;-74
2022/12/16 00:35:27;;;;;;;74.57;37.23;;;;;;;-0.93;100.00;100807.84;4914744;29;20028;-73
2022/12/16 00:37:53;;;;;;;76.27;35.10;;;;;;;-0.90;100.00;100809.50;4914321;29;20027;-73
2022/12/16 00:40:18;;;;;;;76.13;32.70;;;;;;;-0.79;100.00;100803.56;4945757;28;20115;-72
2022/12/16 00:42:43;;;;;;;72.67;32.90;;;;;;;-0.89;100.00;100809.41;4914382;29;20091;-73
2022/12/16 00:45:09;;;;;;;70.90;32.50;;;;;;;-0.70;99.32;100819.00;4926688;29;20032;-74
2022/12/16 00:47:34;;;;;;;71.03;34.87;;;;;;;-0.84;99.64;100812.66;4917131;29;20418;-74
2022/12/16 00:50:00;;;;;;;76.00;35.50;;;;;;;-0.93;99.57;100826.47;4914330;29;20034;-73
2022/12/16 00:52:26;;;;;;;66.03;33.40;;;;;;;-0.85;99.93;100820.72;4929971;29;20028;-72
2022/12/16 00:54:51;;;;;;;70.83;33.90;;;;;;;-0.74;99.90;100817.44;4929804;29;20112;-72
2022/12/16 00:57:16;;;;;;;65.50;34.73;;;;;;;-0.92;99.92;100825.50;4930120;29;20025;-73
2022/12/16 00:59:42;;;;;;;75.13;35.97;;;;;;;-0.89;99.62;100825.34;4929665;29;20027;-73
2022/12/16 01:02:09;;;;;;;71.63;33.80;;;;;;;-0.88;100.00;100827.06;4913873;29;20028;-72
2022/12/16 01:04:35;;;;;;;76.13;35.17;;;;;;;-1.12;100.00;100833.75;4929400;29;20110;-73
2022/12/16 01:07:01;;;;;;;73.37;35.27;;;;;;;-1.11;100.00;100830.13;4913884;29;20114;-73
2022/12/16 01:09:26;;;;;;;66.90;34.13;;;;;;;-1.06;100.00;100832.56;4915218;29;20088;-74
2022/12/16 01:11:51;;;;;;;73.57;32.53;;;;;;;-0.98;100.00;100833.84;4913737;29;20029;-74
2022/12/16 01:14:18;;;;;;;69.63;34.13;;;;;;;-0.82;100.00;100821.41;4923333;29;20028;-73
2022/12/16 01:16:43;;;;;;;74.40;35.30;;;;;;;-0.86;99.99;100827.81;4924382;29;20047;-73
2022/12/16 01:19:09;;;;;;;63.67;32.93;;;;;;;-0.78;100.00;100837.16;4918930;29;20031;-73
2022/12/16 01:21:35;;;;;;;66.23;32.97;;;;;;;-0.67;100.00;100834.75;4938298;29;20079;-75
2022/12/16 01:24:01;;;;;;;68.90;35.13;;;;;;;-0.52;99.20;100841.88;4933531;29;20027;-74
2022/12/16 01:26:26;;;;;;;74.57;34.30;;;;;;;-0.50;98.81;100839.97;4920843;29;20043;-73
2022/12/16 01:28:52;;;;;;;71.63;34.97;;;;;;;-0.53;99.15;100853.44;4916465;29;20027;-74
2022/12/16 01:31:19;;;;;;;73.23;35.10;;;;;;;-0.51;98.83;100846.25;4916645;29;20032;-74
2022/12/16 01:33:45;;;;;;;69.47;34.77;;;;;;;-0.62;99.09;100851.31;4931387;29;20027;-74
2022/12/16 01:36:11;;;;;;;65.57;33.73;;;;;;;-0.76;99.42;100859.22;4932692;29;20395;-72
2022/12/16 01:38:37;;;;;;;70.27;33.10;;;;;;;-0.77;99.10;100860.16;4916604;29;20020;-73
2022/12/16 01:41:03;;;;;;;69.23;34.40;;;;;;;-0.96;99.64;100855.88;4933516;29;20016;-72
2022/12/16 01:43:35;;;;;;;68.93;33.90;;;;;;;-0.89;99.90;100862.56;4916253;29;20051;-73
2022/12/16 01:46:13;;;;;;;53.03;26.95;;;;;;;-0.96;100.00;100866.50;4929139;29;20091;-74
2022/12/16 01:48:48;;;;;;;62.30;32.30;;;;;;;-0.92;99.86;100862.72;4916691;29;20032;-72
2022/12/16 01:51:34;;;;;;;76.17;36.00;;;;;;;-0.91;100.00;100867.13;4932023;29;20036;-73
2022/12/16 01:54:23;;;;;;;67.63;32.93;;;;;;;-1.00;100.00;100859.63;4931054;29;20042;-75
2022/12/16 01:56:59;;;;;;;78.53;37.03;;;;;;;-1.03;100.00;100858.97;4915661;29;20515;-72
2022/12/16 01:59:28;;;;;;;79.60;35.50;;;;;;;-1.16;100.00;100853.47;4932268;29;20082;-72
2022/12/16 02:01:53;;;;;;;74.37;36.03;;;;;;;-1.26;100.00;100868.19;4931635;29;20478;-73
2022/12/16 02:04:19;;;;;;;72.50;36.40;;;;;;;-1.26;100.00;100860.22;4931278;29;20039;-75
2022/12/16 02:06:44;;;;;;;76.93;36.13;;;;;;;-1.29;100.00;100868.34;4916093;29;20038;-74
2022/12/16 02:09:14;;;;;;;75.50;37.30;;;;;;;-1.48;100.00;100864.03;4931810;29;20028;-74
2022/12/16 02:11:39;;;;;;;67.93;34.47;;;;;;;-1.44;100.00;100865.56;4915122;29;20095;-74
2022/12/16 02:14:32;;;;;;;74.83;34.23;;;;;;;-1.26;100.00;100862.88;4925397;29;20041;-73
2022/12/16 02:17:25;;;;;;;76.23;36.10;;;;;;;-1.13;100.00;100862.09;4928152;29;20110;-74
2022/12/16 02:20:15;;;;;;;72.90;35.57;;;;;;;-0.97;100.00;100864.78;4914195;29;20036;-73
2022/12/16 02:22:57;;;;;;;73.27;35.00;;;;;;;-1.19;100.00;100864.25;4925559;29;20447;-74
2022/12/16 02:25:51;;;;;;;72.60;34.00;;;;;;;-1.36;100.00;100862.53;4925579;29;20025;-73
2022/12/16 02:28:35;;;;;;;74.67;34.70;;;;;;;-1.19;100.00;100858.94;4907922;29;20056;-74
2022/12/16 02:31:13;;;;;;;77.90;37.17;;;;;;;-1.10;100.00;100858.44;4927536;29;20036;-73
2022/12/16 02:34:07;;;;;;;78.97;36.93;;;;;;;-1.19;100.00;100856.28;4928198;29;20094;-73
2022/12/16 02:36:44;;;;;;;73.83;33.50;;;;;;;-1.11;100.00;100862.91;4908507;29;20028;-73
2022/12/16 02:39:19;;;;;;;67.40;33.57;;;;;;;-0.95;100.00;100868.22;4906708;29;20032;-73
2022/12/16 02:42:05;;;;;;;77.77;33.73;;;;;;;-1.07;99.81;100863.56;4911934;29;20036;-75
2022/12/16 02:44:52;;;;;;;67.27;34.87;;;;;;;-1.18;100.00;100871.28;4912507;29;20469;-73
2022/12/16 02:47:17;;;;;;;75.37;35.33;;;;;;;-0.98;99.84;100865.75;4928609;29;20032;-74
2022/12/16 02:49:49;;;;;;;71.63;34.60;;;;;;;-0.98;99.33;100868.41;4924604;29;20029;-74
2022/12/16 02:52:17;;;;;;;73.07;33.67;;;;;;;-1.13;98.97;100866.56;4911816;29;20123;-74
2022/12/16 02:58:45;;;;;;;79.77;34.30;;;;;;;-1.71;100.00;100865.22;4909735;29;20032;-74
2022/12/16 03:01:49;;;;;;;67.00;34.47;;;;;;;-1.57;100.00;100864.50;4906704;29;20046;-73
2022/12/16 03:04:21;;;;;;;75.03;33.77;;;;;;;-1.65;100.00;100866.69;4905879;29;20043;-73
2022/12/16 03:06:49;;;;;;;76.10;35.78;;;;;;;-1.70;100.00;100863.44;4925504;29;20111;-75
2022/12/16 03:09:22;;;;;;;86.73;38.60;;;;;;;-1.98;100.00;100859.56;4911937;29;20399;-73
2022/12/16 03:11:50;;;;;;;67.57;33.23;;;;;;;-1.67;100.00;100869.44;4912037;29;20028;-73
2022/12/16 03:14:19;;;;;;;67.53;32.57;;;;;;;-1.66;100.00;100870.31;4914190;29;20035;-73
2022/12/16 03:16:46;;;;;;;80.20;35.23;;;;;;;-1.80;100.00;100867.53;4911872;29;20454;-73
2022/12/16 03:19:13;;;;;;;73.90;33.80;;;;;;;-1.92;100.00;100872.50;4916725;29;20051;-73
2022/12/16 03:21:48;;;;;;;86.77;36.03;;;;;;;-2.06;100.00;100877.66;4931149;29;20394;-76
2022/12/16 03:24:14;;;;;;;88.03;36.10;;;;;;;-2.19;100.00;100877.44;4908717;29;20557;-75
2022/12/16 03:26:53;;;;;;;81.87;37.13;;;;;;;-2.03;100.00;100882.81;4915229;29;20036;-75
2022/12/16 03:29:34;;;;;;;88.73;37.40;;;;;;;-2.02;100.00;100884.53;4909165;29;20031;-74
2022/12/16 03:32:04;;;;;;;84.85;37.42;;;;;;;-1.99;100.00;100889.69;4915183;29;20565;-75
2022/12/16 03:34:43;;;;;;;79.47;36.30;;;;;;;-1.96;100.00;100886.88;4914910;29;20032;-74
2022/12/16 03:37:10;;;;;;;78.60;35.47;;;;;;;-2.06;100.00;100892.72;4928195;29;20084;-75
2022/12/16 03:39:48;;;;;;;76.63;33.60;;;;;;;-2.14;100.00;100893.13;4943020;29;20024;-76
2022/12/16 03:42:14;;;;;;;64.70;31.37;;;;;;;-2.16;100.00;100892.31;4915226;29;20542;-75
2022/12/16 03:44:42;;;;;;;75.53;34.33;;;;;;;-2.49;100.00;100890.41;4930741;29;20098;-74
2022/12/16 03:47:07;;;;;;;78.33;37.13;;;;;;;-2.40;100.00;100882.94;4915559;29;20036;-74
2022/12/16 03:49:33;;;;;;;96.63;41.73;;;;;;;-2.48;100.00;100892.13;4915552;29;20084;-75
2022/12/16 03:51:58;;;;;;;100.20;40.30;;;;;;;-2.52;100.00;100890.56;4914620;29;20020;-74
2022/12/16 03:54:24;;;;;;;89.50;43.43;;;;;;;-2.62;100.00;100894.56;4916430;29;20114;-75
2022/12/16 03:56:50;;;;;;;86.70;37.07;;;;;;;-2.58;100.00;100890.84;4914789;29;20028;-74
2022/12/16 03:59:16;;;;;;;87.13;38.40;;;;;;;-2.58;100.00;100901.47;4931083;29;20028;-74
2022/12/16 04:01:42;;;;;;;89.67;40.83;;;;;;;-2.55;100.00;100906.59;4915869;29;20083;-75
2022/12/16 04:04:08;;;;;;;86.53;39.57;;;;;;;-2.59;100.00;100905.03;4922531;29;20427;-74
2022/12/16 04:06:33;;;;;;;74.07;35.50;;;;;;;-2.69;100.00;100914.34;4930509;29;20036;-76
2022/12/16 04:08:59;;;;;;;82.13;38.27;;;;;;;-2.84;100.00;100915.94;4915252;29;20070;-74
2022/12/16 04:25:23;;;;;;;86.77;39.70;;;;;;;-3.10;100.00;100925.09;4926939;29;20027;-72
2022/12/16 04:27:48;;;;;;;82.07;37.90;;;;;;;-3.01;100.00;100929.09;4930663;29;20040;-72
2022/12/16 04:30:19;;;;;;;89.67;41.80;;;;;;;-3.04;100.00;100939.84;4917946;29;20046;-73
